PWSweather.com
Personal Weather Stations
Station Observations
01979
Ravne Pri CerknemSI 5282

Ravne Pri CerknemSI 5282

Lat: 46.1213916, Lon: 13.952774299999987

Elevation: 2244.094488

Station Type: Techo Line WS2307

Latest ConditionsUpdated 1:00:42 PM GMT+01:01 Sunday, Oct 22, 2017
Currently Today's Max Today's Min Today's Average
Temperature 48.4°F9.1°C 51.6°F10.9°C 48.4°F9.1°C 50.0°F10.0°C
Dew Point 47.3°F8.5°C 49.3°F9.6°C 47.1°F8.4°C 47.8°F8.8°C
Winds 3.1 mph SSE5.0 kmh SSE 8.6 mph N13.8 kmh N - 1.2 mph 1.9 kmh
Wind Gusts 6.3 mph10.1 kmh 13.9 mph22.4 kmh - -
Humidity 96% 97% 88% 92%
Pressure 29.99 in1015.6 mb 30.16 in1021.3 mb 29.98 in1015.2 mb -
Precipitation - 0.37 in9.4 mm - -
Hour Temp Dew Point Humidity Winds Wind Gusts Pressure Precip Precip Rate Daily Precip Total
01:00 PM 48.4°F9.1°C 47.3°F8.5°C 96% 3.1 mph SSE5.0 kmh SSE 6.3 mph10.1 kmh 29.99 in1015.6 mb 0.06 in1.5 mm 0.00 in0.0 mm 0.37 in9.4 mm
12:50 PM 48.7°F9.3°C 47.7°F8.7°C 96% 3.8 mph SE6.1 kmh SE 4.9 mph7.9 kmh 29.98 in1015.2 mb 0.10 in2.5 mm 0.12 in3.0 mm 0.37 in9.4 mm
12:40 PM 48.9°F9.4°C 48.1°F8.9°C 97% 3.6 mph ESE5.8 kmh ESE 4.9 mph7.9 kmh 29.98 in1015.2 mb 0.08 in2.0 mm 0.00 in0.0 mm 0.35 in8.9 mm
12:30 PM 49.5°F9.7°C 48.4°F9.1°C 96% 5.9 mph S9.5 kmh S 6.9 mph11.1 kmh 29.99 in1015.6 mb 0.10 in2.5 mm 0.00 in0.0 mm 0.35 in8.9 mm
12:20 PM 49.8°F9.9°C 48.7°F9.3°C 96% 2.0 mph SE3.2 kmh SE 6.9 mph11.1 kmh 29.99 in1015.6 mb 0.12 in3.0 mm 0.12 in3.0 mm 0.35 in8.9 mm
12:10 PM 49.8°F9.9°C 48.7°F9.3°C 96% 1.6 mph SSE2.6 kmh SSE 3.1 mph5.0 kmh 30.00 in1015.9 mb 0.10 in2.5 mm 0.12 in3.0 mm 0.33 in8.4 mm
12:00 PM 49.6°F9.8°C 48.5°F9.2°C 96% 0.3 mph SE0.5 kmh SE 2.7 mph4.3 kmh 30.00 in1015.9 mb 0.08 in2.0 mm 0.05 in1.3 mm 0.31 in7.9 mm
11:50 AM 49.6°F9.8°C 48.5°F9.2°C 96% 4.3 mph NE6.9 kmh NE 13.9 mph22.4 kmh 30.00 in1015.9 mb 0.04 in1.0 mm 0.00 in0.0 mm 0.27 in6.9 mm
11:40 AM 49.8°F9.9°C 48.7°F9.3°C 96% 6.3 mph ENE10.1 kmh ENE 13.9 mph22.4 kmh 30.00 in1015.9 mb 0.06 in1.5 mm 0.12 in3.0 mm 0.27 in6.9 mm
11:30 AM 49.3°F9.6°C 48.2°F9.0°C 96% 7.2 mph N11.6 kmh N 11.2 mph18.0 kmh 30.02 in1016.6 mb 0.04 in1.0 mm 0.12 in3.0 mm 0.24 in6.1 mm
11:20 AM 50.4°F10.2°C 49.3°F9.6°C 96% 4.6 mph E7.4 kmh E 7.8 mph12.6 kmh 30.01 in1016.3 mb 0.02 in0.5 mm 0.00 in0.0 mm 0.22 in5.6 mm
11:10 AM 50.2°F10.1°C 49.1°F9.5°C 96% 5.2 mph ENE8.4 kmh ENE 11.0 mph17.7 kmh 30.01 in1016.3 mb 0.04 in1.0 mm 0.00 in0.0 mm 0.22 in5.6 mm
11:00 AM 49.1°F9.5°C 48.0°F8.9°C 96% 8.6 mph N13.8 kmh N 11.9 mph19.2 kmh 30.01 in1016.3 mb 0.06 in1.5 mm 0.00 in0.0 mm 0.22 in5.6 mm
10:50 AM 49.8°F9.9°C 48.7°F9.3°C 96% 5.4 mph NNE8.7 kmh NNE 11.9 mph19.2 kmh 30.01 in1016.3 mb 0.10 in2.5 mm 0.12 in3.0 mm 0.22 in5.6 mm
10:40 AM 50.2°F10.1°C 49.1°F9.5°C 96% 6.8 mph ESE10.9 kmh ESE 9.2 mph14.8 kmh 30.01 in1016.3 mb 0.08 in2.0 mm 0.00 in0.0 mm 0.20 in5.1 mm
10:30 AM 49.8°F9.9°C 48.7°F9.3°C 96% 4.3 mph ESE6.9 kmh ESE 6.7 mph10.8 kmh 30.01 in1016.3 mb 0.08 in2.0 mm 0.00 in0.0 mm 0.20 in5.1 mm
10:20 AM 49.1°F9.5°C 48.0°F8.9°C 96% 1.5 mph E2.4 kmh E 5.1 mph8.2 kmh 30.02 in1016.6 mb 0.08 in2.0 mm 0.12 in3.0 mm 0.20 in5.1 mm
10:10 AM 48.7°F9.3°C 47.7°F8.7°C 96% 0.6 mph N1.0 kmh N 2.9 mph4.7 kmh 30.03 in1016.9 mb 0.06 in1.5 mm 0.12 in3.0 mm 0.18 in4.6 mm
10:00 AM 49.1°F9.5°C 48.0°F8.9°C 96% Calm Calm -- 30.02 in1016.6 mb 0.04 in1.0 mm 0.05 in1.3 mm 0.16 in4.1 mm
09:50 AM 49.5°F9.7°C 48.4°F9.1°C 96% Calm Calm -- 30.02 in1016.6 mb 0.00 in0.0 mm 0.00 in0.0 mm 0.12 in3.0 mm
09:40 AM 49.8°F9.9°C 48.7°F9.3°C 96% Calm Calm -- 30.02 in1016.6 mb 0.00 in0.0 mm 0.00 in0.0 mm 0.12 in3.0 mm
09:30 AM 49.8°F9.9°C 48.7°F9.3°C 96% Calm Calm -- 30.02 in1016.6 mb 0.02 in0.5 mm 0.00 in0.0 mm 0.12 in3.0 mm
09:20 AM 49.6°F9.8°C 48.5°F9.2°C 96% Calm Calm -- 30.02 in1016.6 mb 0.04 in1.0 mm 0.00 in0.0 mm 0.12 in3.0 mm
09:10 AM 49.1°F9.5°C 48.0°F8.9°C 96% Calm Calm -- 30.03 in1016.9 mb 0.06 in1.5 mm 0.00 in0.0 mm 0.12 in3.0 mm
09:00 AM 49.3°F9.6°C 47.9°F8.8°C 95% Calm Calm -- 30.03 in1016.9 mb 0.08 in2.0 mm 0.00 in0.0 mm 0.12 in3.0 mm
08:50 AM 49.1°F9.5°C 47.7°F8.7°C 95% 0.5 mph SSE0.8 kmh SSE 3.4 mph5.5 kmh 30.03 in1016.9 mb 0.08 in2.0 mm 0.00 in0.0 mm 0.12 in3.0 mm
08:40 AM 49.1°F9.5°C 47.7°F8.7°C 95% 0.3 mph SSE0.5 kmh SSE 3.4 mph5.5 kmh 30.04 in1017.3 mb 0.08 in2.0 mm 0.00 in0.0 mm 0.12 in3.0 mm
08:30 AM 49.3°F9.6°C 47.9°F8.8°C 95% Calm Calm -- 30.04 in1017.3 mb 0.08 in2.0 mm 0.12 in3.0 mm 0.10 in2.5 mm
08:20 AM 49.1°F9.5°C 47.7°F8.7°C 95% Calm Calm -- 30.04 in1017.3 mb 0.06 in1.5 mm 0.00 in0.0 mm 0.08 in2.0 mm
08:10 AM 49.1°F9.5°C 47.7°F8.7°C 95% Calm Calm -- 30.05 in1017.6 mb 0.06 in1.5 mm 0.12 in3.0 mm 0.06 in1.5 mm
08:00 AM 49.1°F9.5°C 47.7°F8.7°C 95% Calm Calm -- 30.05 in1017.6 mb 0.04 in1.0 mm 0.00 in0.0 mm 0.04 in1.0 mm
07:50 AM 48.9°F9.4°C 47.3°F8.5°C 94% Calm Calm -- 30.04 in1017.3 mb 0.04 in1.0 mm 0.00 in0.0 mm 0.04 in1.0 mm
07:40 AM 49.3°F9.6°C 47.3°F8.5°C 93% Calm Calm -- 30.04 in1017.3 mb 0.04 in1.0 mm 0.12 in3.0 mm 0.04 in1.0 mm
07:30 AM 49.3°F9.6°C 47.3°F8.5°C 93% 0.3 mph NW0.5 kmh NW 1.3 mph2.1 kmh 30.05 in1017.6 mb 0.02 in0.5 mm 0.00 in0.0 mm 0.02 in0.5 mm
07:20 AM 49.3°F9.6°C 47.3°F8.5°C 93% 0.4 mph NW0.6 kmh NW 1.3 mph2.1 kmh 30.05 in1017.6 mb 0.02 in0.5 mm 0.12 in3.0 mm 0.02 in0.5 mm
07:10 AM 49.5°F9.7°C 47.2°F8.4°C 92% Calm Calm -- 30.05 in1017.6 mb 0.00 in0.0 mm 0.00 in0.0 mm 0.00 in0.0 mm
07:00 AM 49.6°F9.8°C 47.4°F8.6°C 92% Calm Calm -- 30.05 in1017.6 mb 0.00 in0.0 mm 0.00 in0.0 mm 0.00 in0.0 mm
06:50 AM 49.6°F9.8°C 47.4°F8.6°C 92% Calm Calm -- 30.05 in1017.6 mb 0.00 in0.0 mm 0.00 in0.0 mm 0.00 in0.0 mm
06:40 AM 49.8°F9.9°C 47.6°F8.7°C 92% Calm Calm -- 30.05 in1017.6 mb 0.00 in0.0 mm 0.00 in0.0 mm 0.00 in0.0 mm
06:30 AM 49.8°F9.9°C 47.3°F8.5°C 91% Calm Calm -- 30.05 in1017.6 mb 0.00 in0.0 mm 0.00 in0.0 mm 0.00 in0.0 mm
06:20 AM 49.8°F9.9°C 47.3°F8.5°C 91% 0.7 mph NNW1.1 kmh NNW 2.2 mph3.5 kmh 30.06 in1017.9 mb 0.00 in0.0 mm 0.00 in0.0 mm 0.00 in0.0 mm
06:10 AM 49.8°F9.9°C 47.3°F8.5°C 91% Calm Calm -- 30.07 in1018.3 mb 0.00 in0.0 mm 0.00 in0.0 mm 0.00 in0.0 mm
06:00 AM 49.8°F9.9°C 47.3°F8.5°C 91% Calm Calm -- 30.07 in1018.3 mb 0.00 in0.0 mm 0.00 in0.0 mm 0.00 in0.0 mm
05:50 AM 50.2°F10.1°C 47.7°F8.7°C 91% 0.8 mph NW1.3 kmh NW 2.9 mph4.7 kmh 30.07 in1018.3 mb 0.00 in0.0 mm 0.00 in0.0 mm 0.00 in0.0 mm
05:40 AM 50.2°F10.1°C 47.7°F8.7°C 91% Calm Calm -- 30.07 in1018.3 mb 0.00 in0.0 mm 0.00 in0.0 mm 0.00 in0.0 mm
05:30 AM 50.2°F10.1°C 47.7°F8.7°C 91% 0.6 mph WSW1.0 kmh WSW 1.3 mph2.1 kmh 30.07 in1018.3 mb 0.00 in0.0 mm 0.00 in0.0 mm 0.00 in0.0 mm
05:20 AM 50.2°F10.1°C 47.7°F8.7°C 91% 0.2 mph WSW0.3 kmh WSW 1.1 mph1.8 kmh 30.07 in1018.3 mb 0.00 in0.0 mm 0.00 in0.0 mm 0.00 in0.0 mm
05:10 AM 50.2°F10.1°C 47.7°F8.7°C 91% Calm Calm -- 30.07 in1018.3 mb 0.00 in0.0 mm 0.00 in0.0 mm 0.00 in0.0 mm
05:00 AM 50.2°F10.1°C 47.7°F8.7°C 91% Calm Calm -- 30.07 in1018.3 mb 0.00 in0.0 mm 0.00 in0.0 mm 0.00 in0.0 mm
04:50 AM 50.2°F10.1°C 47.7°F8.7°C 91% 1.1 mph WSW1.8 kmh WSW 2.2 mph3.5 kmh 30.08 in1018.6 mb 0.00 in0.0 mm 0.00 in0.0 mm 0.00 in0.0 mm
04:40 AM 50.2°F10.1°C 47.7°F8.7°C 91% 1.8 mph WSW2.9 kmh WSW 3.1 mph5.0 kmh 30.09 in1019.0 mb 0.00 in0.0 mm 0.00 in0.0 mm 0.00 in0.0 mm
04:30 AM 50.2°F10.1°C 47.7°F8.7°C 91% 0.1 mph WSW0.2 kmh WSW 0.4 mph0.6 kmh 30.09 in1019.0 mb 0.00 in0.0 mm 0.00 in0.0 mm 0.00 in0.0 mm
04:20 AM 50.2°F10.1°C 47.7°F8.7°C 91% Calm Calm -- 30.09 in1019.0 mb 0.00 in0.0 mm 0.00 in0.0 mm 0.00 in0.0 mm
04:10 AM 50.2°F10.1°C 47.7°F8.7°C 91% 0.1 mph SW0.2 kmh SW 1.1 mph1.8 kmh 30.09 in1019.0 mb 0.00 in0.0 mm 0.00 in0.0 mm 0.00 in0.0 mm
04:02 AM 50.2°F10.1°C 47.4°F8.6°C 90% 0.5 mph SW0.8 kmh SW 1.6 mph2.6 kmh 30.09 in1019.0 mb 0.00 in0.0 mm 0.00 in0.0 mm 0.00 in0.0 mm
04:00 AM 50.2°F10.1°C 47.7°F8.7°C 91% 0.9 mph SW1.4 kmh SW 2.2 mph3.5 kmh 30.09 in1019.0 mb 0.00 in0.0 mm 0.00 in0.0 mm 0.00 in0.0 mm
03:50 AM 50.4°F10.2°C 47.5°F8.6°C 90% 0.5 mph NNW0.8 kmh NNW 3.4 mph5.5 kmh 30.10 in1019.3 mb 0.00 in0.0 mm 0.00 in0.0 mm 0.00 in0.0 mm
03:40 AM 50.2°F10.1°C 47.4°F8.6°C 90% 0.6 mph W1.0 kmh W 3.4 mph5.5 kmh 30.09 in1019.0 mb 0.00 in0.0 mm 0.00 in0.0 mm 0.00 in0.0 mm
03:30 AM 50.2°F10.1°C 47.4°F8.6°C 90% 0.5 mph S0.8 kmh S 1.3 mph2.1 kmh 30.10 in1019.3 mb 0.00 in0.0 mm 0.00 in0.0 mm 0.00 in0.0 mm
03:20 AM 50.2°F10.1°C 47.4°F8.6°C 90% 1.4 mph WSW2.3 kmh WSW 2.5 mph4.0 kmh 30.10 in1019.3 mb 0.00 in0.0 mm 0.00 in0.0 mm 0.00 in0.0 mm
03:10 AM 50.4°F10.2°C 47.5°F8.6°C 90% 0.9 mph W1.4 kmh W 3.4 mph5.5 kmh 30.11 in1019.6 mb 0.00 in0.0 mm 0.00 in0.0 mm 0.00 in0.0 mm
03:02 AM 50.5°F10.3°C 47.1°F8.4°C 88% 0.6 mph NNW1.0 kmh NNW 1.4 mph2.3 kmh 30.12 in1020.0 mb 0.00 in0.0 mm 0.00 in0.0 mm 0.00 in0.0 mm
03:00 AM 50.4°F10.2°C 47.2°F8.4°C 89% 0.3 mph W0.5 kmh W 1.3 mph2.1 kmh 30.11 in1019.6 mb 0.00 in0.0 mm 0.00 in0.0 mm 0.00 in0.0 mm
02:50 AM 50.5°F10.3°C 47.4°F8.6°C 89% 0.2 mph N0.3 kmh N 0.9 mph1.4 kmh 30.12 in1020.0 mb 0.00 in0.0 mm 0.00 in0.0 mm 0.00 in0.0 mm
02:40 AM 50.5°F10.3°C 47.1°F8.4°C 88% 0.2 mph NNW0.3 kmh NNW 1.1 mph1.8 kmh 30.12 in1020.0 mb 0.00 in0.0 mm 0.00 in0.0 mm 0.00 in0.0 mm
02:30 AM 50.7°F10.4°C 47.3°F8.5°C 88% 0.7 mph N1.1 kmh N 2.5 mph4.0 kmh 30.12 in1020.0 mb 0.00 in0.0 mm 0.00 in0.0 mm 0.00 in0.0 mm
02:20 AM 50.9°F10.5°C 47.5°F8.6°C 88% Calm Calm 2.5 mph4.0 kmh 30.12 in1020.0 mb 0.00 in0.0 mm 0.00 in0.0 mm 0.00 in0.0 mm
02:10 AM 51.1°F10.6°C 47.6°F8.7°C 88% Calm Calm -- 30.12 in1020.0 mb 0.00 in0.0 mm 0.00 in0.0 mm 0.00 in0.0 mm
02:01 AM 51.6°F10.9°C 48.2°F9.0°C 88% Calm Calm -- 30.14 in1020.7 mb 0.00 in0.0 mm 0.00 in0.0 mm 0.00 in0.0 mm
02:00 AM 51.4°F10.8°C 48.0°F8.9°C 88% Calm Calm -- 30.13 in1020.3 mb 0.00 in0.0 mm 0.00 in0.0 mm 0.00 in0.0 mm
01:50 AM 51.4°F10.8°C 48.0°F8.9°C 88% Calm Calm -- 30.13 in1020.3 mb 0.00 in0.0 mm 0.00 in0.0 mm 0.00 in0.0 mm
01:40 AM 51.6°F10.9°C 48.2°F9.0°C 88% 1.8 mph NNW2.9 kmh NNW 3.8 mph6.1 kmh 30.14 in1020.7 mb 0.00 in0.0 mm 0.00 in0.0 mm 0.00 in0.0 mm
01:30 AM 51.4°F10.8°C 48.0°F8.9°C 88% 2.0 mph W3.2 kmh W 4.7 mph7.6 kmh 30.14 in1020.7 mb 0.00 in0.0 mm 0.00 in0.0 mm 0.00 in0.0 mm
01:20 AM 51.3°F10.7°C 47.8°F8.8°C 88% 0.7 mph NW1.1 kmh NW 1.8 mph2.9 kmh 30.14 in1020.7 mb 0.00 in0.0 mm 0.00 in0.0 mm 0.00 in0.0 mm
01:10 AM 51.1°F10.6°C 47.6°F8.7°C 88% 0.9 mph N1.4 kmh N 3.1 mph5.0 kmh 30.15 in1021.0 mb 0.00 in0.0 mm 0.00 in0.0 mm 0.00 in0.0 mm
01:00 AM 50.9°F10.5°C 47.5°F8.6°C 88% 0.2 mph NW0.3 kmh NW 0.9 mph1.4 kmh 30.15 in1021.0 mb 0.00 in0.0 mm 0.00 in0.0 mm 0.00 in0.0 mm
12:50 AM 50.9°F10.5°C 47.5°F8.6°C 88% 1.0 mph NW1.6 kmh NW 3.1 mph5.0 kmh 30.16 in1021.3 mb 0.00 in0.0 mm 0.00 in0.0 mm 0.00 in0.0 mm
12:40 AM 50.9°F10.5°C 47.5°F8.6°C 88% 0.5 mph WSW0.8 kmh WSW 2.5 mph4.0 kmh 30.16 in1021.3 mb 0.00 in0.0 mm 0.00 in0.0 mm 0.00 in0.0 mm
12:30 AM 51.3°F10.7°C 47.8°F8.8°C 88% 0.8 mph NNW1.3 kmh NNW 4.3 mph6.9 kmh 30.16 in1021.3 mb 0.00 in0.0 mm 0.00 in0.0 mm 0.00 in0.0 mm
12:20 AM 51.1°F10.6°C 47.6°F8.7°C 88% 2.2 mph NNW3.5 kmh NNW 4.3 mph6.9 kmh 30.16 in1021.3 mb 0.00 in0.0 mm 0.00 in0.0 mm 0.00 in0.0 mm
12:10 AM 51.1°F10.6°C 47.6°F8.7°C 88% 0.7 mph NW1.1 kmh NW 2.2 mph3.5 kmh 30.16 in1021.3 mb 0.00 in0.0 mm 0.00 in0.0 mm 0.00 in0.0 mm
12:00 AM 51.3°F10.7°C 47.8°F8.8°C 88% 1.2 mph NW1.9 kmh NW 3.1 mph5.0 kmh 30.16 in1021.3 mb 0.00 in0.0 mm 0.00 in0.0 mm 0.00 in0.0 mm